ウィーン の空港の天気 - METARとTAF

ウィーン国際空港 ( LOWW / VIE ) - オーストリア ウィーン
飛行場実況気象(Metar)
観測時間04/27 06:50 CEST (04/27 04:50 UTC)
風向・風速南西 2m/s
視程10km以上
天気現象
なし
気温6℃
湿度93%
気圧1019hPa
METARLOWW 270450Z 22004KT 160V280 CAVOK 06/05 Q1019 NOSIG
過去の天気等 Google飛行場航空写真 Wunderground天気予報

過去48時間のMETAR

飛行場予報(TAF)
発表時間: 4/27 04:15 CEST (4/27 02:15 UTC)
予報対象時間: 27日5時 CEST ~ 28日11時 CEST
風向・風速不定 1m/s
視程10km以上
なし
27日8時 CEST ~ 27日11時 CEST に徐々に
風向・風速南東 3m/s
27日11時 CEST ~ 27日13時 CEST に徐々に
風向・風速南南東 7m/s
27日15時 CEST ~ 27日21時 CEST に一時的に
風向・風速南南東 9m/s
28日2時 CEST ~ 28日5時 CEST に徐々に
風向・風速南南東 3m/s
TAF LOWW 270215Z 2703/2809 VRB02KT CAVOK TX19/2715Z TN06/2704Z
BECMG 2706/2709 14006KT
BECMG 2709/2711 16013KT
TEMPO 2713/2719 16018KT
BECMG 2800/2803 15006KT